createdAt,value
2023-04-06T00:00:54.032Z,9.82
2023-04-06T00:03:23.234Z,9.91
2023-04-06T00:05:52.813Z,9.96
2023-04-06T00:08:24.667Z,9.87
2023-04-06T00:10:53.989Z,10.01
2023-04-06T00:13:24.321Z,9.99
2023-04-06T00:15:53.429Z,9.96
2023-04-06T00:18:22.503Z,10.07
2023-04-06T00:20:52.306Z,9.82
2023-04-06T00:23:21.464Z,9.99
2023-04-06T00:25:51.919Z,9.73
2023-04-06T00:28:26.444Z,9.59
2023-04-06T00:30:57.247Z,9.85
2023-04-06T00:33:26.354Z,9.91
2023-04-06T00:35:55.793Z,10.01
2023-04-06T00:38:24.899Z,9.93
2023-04-06T00:40:53.819Z,9.77
2023-04-06T00:43:23.043Z,9.76
2023-04-06T00:45:52.404Z,10.05
2023-04-06T00:48:23.379Z,9.84
2023-04-06T00:50:52.391Z,9.72
2023-04-06T00:53:21.795Z,9.87
2023-04-06T00:55:51.535Z,10.04
2023-04-06T00:58:21.353Z,10.23
2023-04-06T01:00:55.771Z,9.68
2023-04-06T01:03:27.481Z,9.94
2023-04-06T01:05:59.347Z,10.14
2023-04-06T01:08:34.832Z,9.98
2023-04-06T01:11:25.286Z,10.03
2023-04-06T01:13:55.696Z,9.98
2023-04-06T01:16:48.721Z,10.19
2023-04-06T01:19:22.798Z,9.99
2023-04-06T01:21:55.035Z,10.23
2023-04-06T01:24:35.403Z,10.30
2023-04-06T01:27:10.848Z,10.23
2023-04-06T01:30:00.436Z,10.22
2023-04-06T01:32:49.889Z,10.20
2023-04-06T01:35:25.783Z,10.36
2023-04-06T01:38:05.859Z,10.42
2023-04-06T01:40:44.323Z,10.44
2023-04-06T01:43:13.568Z,10.15
2023-04-06T01:46:06.309Z,10.21
2023-04-06T01:48:38.796Z,10.49
2023-04-06T01:51:20.188Z,10.47
2023-04-06T01:53:59.778Z,10.47
2023-04-06T01:57:02.353Z,10.57
2023-04-06T01:59:53.221Z,10.51
2023-04-06T02:02:42.581Z,10.50
2023-04-06T02:05:19.727Z,10.54
2023-04-06T02:07:50.507Z,10.51
2023-04-06T02:10:24.307Z,10.48
2023-04-06T02:12:54.930Z,10.61
2023-04-06T02:15:29.222Z,10.55
2023-04-06T02:17:59.863Z,10.57
2023-04-06T02:20:29.253Z,10.91
2023-04-06T02:23:01.596Z,10.78
2023-04-06T02:25:33.685Z,10.79
2023-04-06T02:28:04.419Z,10.88
2023-04-06T02:30:33.971Z,10.78
2023-04-06T02:33:03.960Z,10.67
2023-04-06T02:35:41.679Z,10.91
2023-04-06T02:38:11.467Z,10.76
2023-04-06T02:40:40.577Z,11.01
2023-04-06T02:43:22.760Z,10.77
2023-04-06T02:45:56.120Z,10.95
2023-04-06T02:48:26.895Z,10.83
2023-04-06T02:50:56.039Z,11.02
2023-04-06T02:53:25.170Z,10.87
2023-04-06T02:55:54.108Z,10.67
2023-04-06T02:58:24.867Z,10.67
2023-04-06T03:00:57.322Z,10.69
2023-04-06T03:03:26.498Z,10.50
2023-04-06T03:05:57.340Z,10.86
2023-04-06T03:08:30.152Z,10.97
2023-04-06T03:10:59.174Z,10.95
2023-04-06T03:13:39.532Z,10.98
2023-04-06T03:16:09.554Z,10.77
2023-04-06T03:18:38.835Z,10.75
2023-04-06T03:21:08.223Z,10.88
2023-04-06T03:23:47.304Z,10.91
2023-04-06T03:26:16.302Z,10.91
2023-04-06T03:28:46.620Z,10.97
2023-04-06T03:31:16.305Z,10.97
2023-04-06T03:34:02.962Z,10.99
2023-04-06T03:36:37.919Z,11.16
2023-04-06T03:39:10.423Z,11.04
2023-04-06T03:41:45.833Z,11.00
2023-04-06T03:44:34.901Z,11.13
2023-04-06T03:47:04.462Z,11.37
2023-04-06T03:49:35.974Z,11.28
2023-04-06T03:52:28.512Z,11.06
2023-04-06T03:55:00.163Z,11.19
2023-04-06T03:57:32.333Z,11.13
2023-04-06T04:00:05.535Z,11.09
2023-04-06T04:02:42.163Z,11.08
2023-04-06T04:05:11.713Z,11.20
2023-04-06T04:07:43.553Z,11.34
2023-04-06T04:10:16.842Z,11.44
2023-04-06T04:12:46.255Z,11.59
2023-04-06T04:15:39.064Z,11.54
2023-04-06T04:18:10.519Z,11.58
2023-04-06T04:20:39.833Z,11.66
2023-04-06T04:23:09.277Z,11.74
2023-04-06T04:25:41.760Z,11.72
2023-04-06T04:28:11.159Z,11.19
2023-04-06T04:30:51.499Z,11.30
2023-04-06T04:33:26.545Z,11.57
2023-04-06T04:36:01.407Z,11.76
2023-04-06T04:38:35.889Z,11.96
2023-04-06T04:41:12.463Z,11.37
2023-04-06T04:43:58.479Z,11.16
2023-04-06T04:46:31.585Z,11.30
2023-04-06T04:49:00.961Z,11.53
2023-04-06T04:51:34.856Z,11.71
2023-04-06T04:54:17.671Z,11.57
2023-04-06T04:56:49.735Z,11.57
2023-04-06T04:59:45.248Z,11.44
2023-04-06T05:02:21.385Z,11.41
2023-04-06T05:05:10.933Z,11.34
2023-04-06T05:07:47.398Z,11.38
2023-04-06T05:10:32.666Z,11.68
2023-04-06T05:13:05.200Z,11.85
2023-04-06T05:15:39.312Z,11.61
2023-04-06T05:18:21.644Z,11.53
2023-04-06T05:20:51.441Z,11.66
2023-04-06T05:23:23.992Z,11.77
2023-04-06T05:25:54.442Z,11.77
2023-04-06T05:28:25.564Z,11.69
2023-04-06T05:31:09.496Z,11.58
2023-04-06T05:34:17.796Z,11.83
2023-04-06T05:36:48.522Z,11.80
2023-04-06T05:39:24.325Z,11.82
2023-04-06T05:41:56.231Z,12.08
2023-04-06T05:44:39.812Z,12.22
2023-04-06T05:47:15.778Z,12.12
2023-04-06T05:49:59.063Z,12.28
2023-04-06T05:52:46.256Z,12.44
2023-04-06T05:55:18.387Z,12.54
2023-04-06T05:57:52.597Z,12.48
2023-04-06T06:00:23.692Z,12.99
2023-04-06T06:03:05.457Z,13.43
2023-04-06T06:05:50.148Z,13.32
2023-04-06T06:08:27.204Z,13.58
2023-04-06T06:10:57.331Z,14.38
2023-04-06T06:13:28.601Z,14.18
2023-04-06T06:15:59.738Z,14.46
2023-04-06T06:18:32.571Z,13.74
2023-04-06T06:21:03.772Z,13.38
2023-04-06T06:23:33.808Z,13.47
2023-04-06T06:26:03.491Z,14.08
2023-04-06T06:28:33.481Z,13.64
2023-04-06T06:31:03.468Z,13.62
2023-04-06T06:33:33.512Z,13.80
2023-04-06T06:36:06.638Z,14.33
2023-04-06T06:38:36.268Z,14.35
2023-04-06T06:41:10.060Z,14.70
2023-04-06T06:43:41.648Z,14.77
2023-04-06T06:46:13.233Z,14.76
2023-04-06T06:48:43.744Z,15.10
2023-04-06T06:51:14.357Z,14.82
2023-04-06T06:53:43.647Z,14.39
2023-04-06T06:56:13.882Z,14.69
2023-04-06T06:58:45.249Z,15.00
2023-04-06T07:01:14.528Z,15.27
2023-04-06T07:03:44.291Z,15.43
2023-04-06T07:06:15.168Z,15.40
2023-04-06T07:08:44.195Z,15.47
2023-04-06T07:11:13.511Z,15.38
2023-04-06T07:13:44.054Z,14.75
2023-04-06T07:16:24.760Z,15.23
2023-04-06T07:18:53.807Z,14.59
2023-04-06T07:21:24.576Z,14.66
2023-04-06T07:23:54.306Z,13.92
2023-04-06T07:26:24.348Z,13.96
2023-04-06T07:28:53.680Z,13.76
2023-04-06T07:32:04.923Z,14.09
2023-04-06T07:34:46.152Z,14.81
2023-04-06T07:37:17.217Z,14.50
2023-04-06T07:39:49.355Z,14.02
2023-04-06T07:42:22.992Z,14.56
2023-04-06T07:44:52.366Z,14.89
2023-04-06T07:47:22.760Z,13.82
2023-04-06T07:49:52.332Z,14.69
2023-04-06T07:52:23.034Z,14.75
2023-04-06T07:54:52.784Z,14.44
2023-04-06T07:57:22.151Z,14.30
2023-04-06T07:59:51.532Z,14.56
2023-04-06T08:02:20.819Z,14.54
2023-04-06T08:04:50.250Z,14.99
2023-04-06T08:07:19.842Z,15.18
2023-04-06T08:09:52.891Z,15.34
2023-04-06T08:12:22.636Z,16.17
2023-04-06T08:14:54.208Z,16.30
2023-04-06T08:17:23.191Z,16.08
2023-04-06T08:19:52.357Z,16.34
2023-04-06T08:22:21.810Z,16.24
2023-04-06T08:24:53.308Z,16.27
2023-04-06T08:27:22.773Z,15.78
2023-04-06T08:29:57.280Z,16.01
2023-04-06T08:32:27.621Z,16.47
2023-04-06T08:34:57.365Z,16.62
2023-04-06T08:37:31.413Z,16.61
2023-04-06T08:40:05.275Z,16.38
2023-04-06T08:42:43.665Z,16.54
2023-04-06T08:45:13.705Z,17.37
2023-04-06T08:47:43.121Z,17.81
2023-04-06T08:50:13.692Z,18.01
2023-04-06T08:52:45.312Z,18.28
2023-04-06T08:55:16.475Z,17.74
2023-04-06T08:57:54.754Z,16.95
2023-04-06T09:00:27.984Z,16.09
2023-04-06T09:02:58.916Z,15.72
2023-04-06T09:05:28.772Z,15.60
2023-04-06T09:07:58.136Z,15.59
2023-04-06T09:10:28.969Z,15.72
2023-04-06T09:13:06.688Z,15.81
2023-04-06T09:15:45.363Z,15.82
2023-04-06T09:18:33.786Z,15.64
2023-04-06T09:21:04.854Z,15.66
2023-04-06T09:23:37.223Z,15.40
2023-04-06T09:26:15.067Z,15.49
2023-04-06T09:28:51.094Z,15.36
2023-04-06T09:31:29.336Z,15.44
2023-04-06T09:34:08.678Z,15.50
2023-04-06T09:36:48.589Z,15.46
2023-04-06T09:39:22.632Z,15.06
2023-04-06T09:41:57.564Z,15.17
2023-04-06T09:44:28.831Z,15.20
2023-04-06T09:47:00.978Z,14.75
2023-04-06T09:49:35.712Z,14.45
2023-04-06T09:52:06.237Z,14.52
2023-04-06T09:54:37.271Z,14.53
2023-04-06T09:57:15.039Z,14.50
2023-04-06T09:59:54.932Z,14.21
2023-04-06T10:02:43.868Z,14.46
2023-04-06T10:05:21.872Z,14.65
2023-04-06T10:08:00.722Z,14.96
2023-04-06T10:10:31.564Z,15.26
2023-04-06T10:13:04.866Z,14.92
2023-04-06T10:15:37.111Z,14.30
2023-04-06T10:18:06.475Z,14.03
2023-04-06T10:20:41.398Z,14.11
2023-04-06T10:23:17.099Z,13.98
2023-04-06T10:25:56.076Z,13.40
2023-04-06T10:28:27.531Z,13.67
2023-04-06T10:31:00.365Z,14.28
2023-04-06T10:33:30.096Z,14.22
2023-04-06T10:35:59.168Z,14.03
2023-04-06T10:38:41.331Z,14.13
2023-04-06T10:41:14.973Z,13.99
2023-04-06T10:43:47.442Z,14.12
2023-04-06T10:46:27.557Z,14.12
2023-04-06T10:48:59.548Z,14.20
2023-04-06T10:51:30.622Z,14.34
2023-04-06T10:54:01.636Z,13.95
2023-04-06T10:56:40.017Z,13.27
2023-04-06T10:59:10.776Z,13.50
2023-04-06T11:01:40.287Z,13.70
2023-04-06T11:04:14.440Z,13.84
2023-04-06T11:06:49.084Z,13.28
2023-04-06T11:09:27.225Z,13.66
2023-04-06T11:11:56.488Z,13.64
2023-04-06T11:14:27.596Z,13.44
2023-04-06T11:16:57.215Z,13.23
2023-04-06T11:19:26.645Z,13.71
2023-04-06T11:22:00.154Z,13.49
2023-04-06T11:24:29.352Z,13.43
2023-04-06T11:27:02.152Z,13.05
2023-04-06T11:29:34.143Z,13.25
2023-04-06T11:32:04.926Z,12.86
2023-04-06T11:34:38.072Z,13.18
2023-04-06T11:37:25.075Z,12.97
2023-04-06T11:40:07.996Z,13.30
2023-04-06T11:42:37.906Z,13.68
2023-04-06T11:45:11.300Z,13.66
2023-04-06T11:47:46.481Z,13.18
2023-04-06T11:50:18.527Z,13.37
2023-04-06T11:53:03.673Z,13.67
2023-04-06T11:55:40.013Z,14.03
2023-04-06T11:58:09.596Z,14.27
2023-04-06T12:00:48.437Z,14.12
2023-04-06T12:03:23.452Z,13.06
2023-04-06T12:05:52.532Z,13.16
2023-04-06T12:08:26.499Z,14.04
2023-04-06T12:10:56.675Z,13.98
2023-04-06T12:13:31.254Z,14.09
2023-04-06T12:16:01.791Z,13.83
2023-04-06T12:18:31.746Z,14.04
2023-04-06T12:21:03.371Z,14.61
2023-04-06T12:23:32.504Z,16.12
2023-04-06T12:26:05.311Z,15.62
2023-04-06T12:28:34.811Z,15.44
2023-04-06T12:31:08.545Z,15.88
2023-04-06T12:33:37.647Z,15.66
2023-04-06T12:36:07.080Z,15.59
2023-04-06T12:38:39.206Z,15.99
2023-04-06T12:41:08.953Z,16.22
2023-04-06T12:43:38.229Z,15.72
2023-04-06T12:46:08.949Z,15.34
2023-04-06T12:48:38.552Z,15.97
2023-04-06T12:51:08.843Z,15.62
2023-04-06T12:53:38.302Z,15.61
2023-04-06T12:56:15.224Z,15.73
2023-04-06T12:58:44.891Z,15.68
2023-04-06T13:01:16.060Z,15.05
2023-04-06T13:03:46.337Z,15.19
2023-04-06T13:06:23.731Z,14.97
2023-04-06T13:08:53.224Z,14.26
2023-04-06T13:11:26.289Z,14.86
2023-04-06T13:13:57.100Z,14.81
2023-04-06T13:16:30.526Z,15.01
2023-04-06T13:19:02.897Z,15.31
2023-04-06T13:21:32.931Z,15.39
2023-04-06T13:24:04.346Z,14.80
2023-04-06T13:26:36.997Z,15.44
2023-04-06T13:29:18.090Z,14.76
2023-04-06T13:31:48.583Z,14.71
2023-04-06T13:34:19.824Z,14.50
2023-04-06T13:36:51.873Z,14.08
2023-04-06T13:39:21.151Z,13.97
2023-04-06T13:41:50.514Z,13.99
2023-04-06T13:44:21.181Z,13.93
2023-04-06T13:46:56.619Z,13.91
2023-04-06T13:49:32.032Z,14.11
2023-04-06T13:52:05.025Z,14.04
2023-04-06T13:54:36.724Z,14.26
2023-04-06T13:57:08.551Z,14.48
2023-04-06T13:59:42.317Z,14.72
2023-04-06T14:02:13.166Z,14.66
2023-04-06T14:04:42.325Z,14.98
2023-04-06T14:07:15.126Z,15.15
2023-04-06T14:09:44.430Z,15.13
2023-04-06T14:12:13.992Z,15.35
2023-04-06T14:14:43.407Z,15.15
2023-04-06T14:17:14.126Z,15.08
2023-04-06T14:19:47.041Z,14.76
2023-04-06T14:22:16.730Z,14.31
2023-04-06T14:24:47.987Z,14.96
2023-04-06T14:27:18.064Z,15.20
2023-04-06T14:29:49.706Z,15.46
2023-04-06T14:32:20.159Z,14.81
2023-04-06T14:34:49.566Z,14.77
2023-04-06T14:37:22.441Z,14.81
2023-04-06T14:39:54.440Z,15.36
2023-04-06T14:42:26.294Z,15.18
2023-04-06T14:44:55.721Z,14.82
2023-04-06T14:47:27.802Z,14.47
2023-04-06T14:49:59.605Z,14.97
2023-04-06T14:52:30.688Z,15.19
2023-04-06T14:55:22.020Z,15.26
2023-04-06T14:57:51.211Z,14.81
2023-04-06T15:00:23.461Z,15.11
2023-04-06T15:02:54.493Z,14.70
2023-04-06T15:05:28.510Z,15.05
2023-04-06T15:08:01.210Z,15.12
2023-04-06T15:10:30.341Z,15.05
2023-04-06T15:13:02.417Z,15.26
2023-04-06T15:15:32.009Z,15.00
2023-04-06T15:18:03.686Z,15.00
2023-04-06T15:20:35.012Z,14.46
2023-04-06T15:23:05.967Z,14.86
2023-04-06T15:25:38.774Z,14.79
2023-04-06T15:28:13.108Z,14.90
2023-04-06T15:30:42.606Z,14.70
2023-04-06T15:33:29.841Z,14.76
2023-04-06T15:36:10.644Z,14.66
2023-04-06T15:38:52.675Z,14.80
2023-04-06T15:41:22.452Z,14.89
2023-04-06T15:43:51.612Z,14.57
2023-04-06T15:46:21.671Z,14.61
2023-04-06T15:48:52.462Z,14.69
2023-04-06T15:51:21.618Z,14.33
2023-04-06T15:53:50.967Z,14.12
2023-04-06T15:56:21.348Z,14.10
2023-04-06T15:58:50.403Z,13.96
2023-04-06T16:01:20.716Z,14.16
2023-04-06T16:03:51.171Z,14.23
2023-04-06T16:06:20.622Z,14.21
2023-04-06T16:08:50.229Z,14.12
2023-04-06T16:11:19.953Z,14.20
2023-04-06T16:13:55.147Z,14.18
2023-04-06T16:16:24.849Z,14.21
2023-04-06T16:18:55.369Z,14.09
2023-04-06T16:21:24.528Z,13.97
2023-04-06T16:23:53.855Z,13.99
2023-04-06T16:26:23.654Z,14.04
2023-04-06T16:28:53.324Z,13.91
2023-04-06T16:31:24.067Z,13.93
2023-04-06T16:33:57.167Z,13.61
2023-04-06T16:36:27.599Z,13.78
2023-04-06T16:38:57.502Z,13.82
2023-04-06T16:41:28.864Z,13.94
2023-04-06T16:43:58.138Z,13.74
2023-04-06T16:46:32.043Z,13.89
2023-04-06T16:49:03.492Z,13.78
2023-04-06T16:51:33.370Z,13.58
2023-04-06T16:54:03.039Z,13.77
2023-04-06T16:56:34.036Z,13.53
2023-04-06T16:59:03.483Z,13.73
2023-04-06T17:01:32.712Z,13.69
2023-04-06T17:04:03.789Z,13.59
2023-04-06T17:06:33.851Z,13.79
2023-04-06T17:09:05.888Z,13.58
2023-04-06T17:11:46.145Z,13.23
2023-04-06T17:14:19.157Z,13.14
2023-04-06T17:16:51.892Z,12.89
2023-04-06T17:19:22.915Z,13.13
2023-04-06T17:21:53.061Z,13.18
2023-04-06T17:24:23.834Z,12.16
2023-04-06T17:26:53.339Z,12.61
2023-04-06T17:29:23.808Z,12.93
2023-04-06T17:31:57.194Z,11.97
2023-04-06T17:34:28.139Z,13.17
2023-04-06T17:36:57.623Z,12.97
2023-04-06T17:39:27.138Z,12.90
2023-04-06T17:41:57.467Z,12.70
2023-04-06T17:44:27.493Z,12.87
2023-04-06T17:46:57.602Z,12.94
2023-04-06T17:49:50.924Z,12.43
2023-04-06T17:52:22.955Z,11.86
2023-04-06T17:55:00.948Z,11.91
2023-04-06T17:57:41.143Z,12.23
2023-04-06T18:00:16.709Z,12.81
2023-04-06T18:02:46.998Z,13.13
2023-04-06T18:05:24.396Z,13.05
2023-04-06T18:08:06.580Z,11.57
2023-04-06T18:10:51.020Z,12.03
2023-04-06T18:13:21.474Z,12.42
2023-04-06T18:15:54.661Z,12.90
2023-04-06T18:18:28.366Z,12.01
2023-04-06T18:21:13.855Z,12.31
2023-04-06T18:24:05.662Z,12.35
2023-04-06T18:26:40.862Z,12.43
2023-04-06T18:29:10.588Z,12.16
2023-04-06T18:31:40.666Z,12.02
2023-04-06T18:34:10.061Z,12.24
2023-04-06T18:36:40.867Z,11.94
2023-04-06T18:39:10.503Z,11.80
2023-04-06T18:41:40.231Z,12.33
2023-04-06T18:44:09.714Z,12.35
2023-04-06T18:46:39.686Z,12.05
2023-04-06T18:49:08.924Z,12.18
2023-04-06T18:51:38.845Z,12.26
2023-04-06T18:54:09.999Z,12.27
2023-04-06T18:56:42.386Z,12.24
2023-04-06T18:59:12.216Z,11.78
2023-04-06T19:01:46.921Z,12.21
2023-04-06T19:04:16.956Z,11.93
2023-04-06T19:06:46.872Z,12.05
2023-04-06T19:09:18.020Z,11.97
2023-04-06T19:11:48.100Z,11.93
2023-04-06T19:14:17.663Z,11.99
2023-04-06T19:16:52.533Z,11.94
2023-04-06T19:19:22.380Z,11.90
2023-04-06T19:21:54.267Z,12.23
2023-04-06T19:24:30.026Z,11.71
2023-04-06T19:26:59.931Z,12.02
2023-04-06T19:29:30.178Z,12.19
2023-04-06T19:32:02.804Z,11.66
2023-04-06T19:34:32.267Z,11.95
2023-04-06T19:37:04.882Z,11.65
2023-04-06T19:39:38.384Z,11.53
2023-04-06T19:42:07.701Z,11.41
2023-04-06T19:44:45.681Z,11.06
2023-04-06T19:47:16.330Z,11.34
2023-04-06T19:49:46.049Z,11.05
2023-04-06T19:52:16.408Z,11.00
2023-04-06T19:54:47.280Z,11.24
2023-04-06T19:57:17.049Z,11.08
2023-04-06T19:59:46.298Z,10.78
2023-04-06T20:02:16.510Z,10.71
2023-04-06T20:04:46.414Z,10.96
2023-04-06T20:07:15.958Z,10.73
2023-04-06T20:09:49.774Z,10.39
2023-04-06T20:12:21.104Z,10.58
2023-04-06T20:14:53.452Z,10.39
2023-04-06T20:17:23.215Z,10.88
2023-04-06T20:19:53.983Z,10.66
2023-04-06T20:22:22.994Z,10.83
2023-04-06T20:24:53.376Z,10.54
2023-04-06T20:27:22.413Z,10.91
2023-04-06T20:29:51.744Z,10.46
2023-04-06T20:32:21.846Z,10.69
2023-04-06T20:34:52.598Z,10.80
2023-04-06T20:37:22.046Z,10.81
2023-04-06T20:39:51.680Z,10.83
2023-04-06T20:42:23.914Z,10.64
2023-04-06T20:44:53.778Z,10.43
2023-04-06T20:47:23.304Z,10.18
2023-04-06T20:49:52.543Z,10.29
2023-04-06T20:52:21.726Z,10.47
2023-04-06T20:54:52.435Z,10.60
2023-04-06T20:57:23.504Z,10.45
2023-04-06T20:59:52.718Z,10.34
2023-04-06T21:02:22.166Z,10.61
2023-04-06T21:04:55.699Z,10.53
2023-04-06T21:07:24.766Z,10.40
2023-04-06T21:09:54.402Z,10.03
2023-04-06T21:12:24.693Z,9.82
2023-04-06T21:14:54.098Z,9.85
2023-04-06T21:17:23.195Z,9.90
2023-04-06T21:19:52.168Z,10.09
2023-04-06T21:22:21.206Z,9.87
2023-04-06T21:24:50.308Z,9.56
2023-04-06T21:27:19.447Z,9.56
2023-04-06T21:29:50.504Z,9.20
2023-04-06T21:32:19.513Z,9.88
2023-04-06T21:34:49.090Z,9.59
2023-04-06T21:37:19.825Z,9.75
2023-04-06T21:39:49.929Z,9.32
2023-04-06T21:42:19.057Z,9.62
2023-04-06T21:44:49.994Z,9.54
2023-04-06T21:47:19.119Z,9.64
2023-04-06T21:49:48.316Z,9.77
2023-04-06T21:52:18.156Z,9.61
2023-04-06T21:54:47.341Z,9.72
2023-04-06T21:57:16.499Z,8.69
2023-04-06T21:59:45.471Z,8.81
2023-04-06T22:02:16.087Z,8.61
2023-04-06T22:04:46.811Z,9.23
2023-04-06T22:07:16.067Z,9.30
2023-04-06T22:09:50.813Z,9.51
2023-04-06T22:12:21.308Z,9.30
2023-04-06T22:14:50.327Z,9.57
2023-04-06T22:17:20.960Z,9.36
2023-04-06T22:19:49.987Z,9.54
2023-04-06T22:22:19.212Z,9.49
2023-04-06T22:24:48.127Z,9.08
2023-04-06T22:27:17.245Z,8.85
2023-04-06T22:29:46.378Z,9.01
2023-04-06T22:32:15.352Z,9.12
2023-04-06T22:34:45.817Z,8.61
2023-04-06T22:37:14.801Z,8.75
2023-04-06T22:39:44.162Z,8.76
2023-04-06T22:42:13.535Z,8.68
2023-04-06T22:44:42.785Z,9.09
2023-04-06T22:47:11.819Z,8.91
2023-04-06T22:49:41.158Z,8.74
2023-04-06T22:52:11.639Z,8.65
2023-04-06T22:54:40.627Z,8.92
2023-04-06T22:57:09.588Z,8.74
2023-04-06T22:59:40.422Z,8.85
2023-04-06T23:02:12.342Z,8.48
2023-04-06T23:04:41.518Z,8.97
2023-04-06T23:07:15.322Z,8.73
2023-04-06T23:09:44.990Z,7.90
2023-04-06T23:12:13.987Z,8.56
2023-04-06T23:14:43.161Z,8.16
2023-04-06T23:17:12.253Z,8.07
2023-04-06T23:19:41.314Z,8.78
2023-04-06T23:22:12.129Z,8.41
2023-04-06T23:24:41.511Z,8.63
2023-04-06T23:27:10.453Z,8.75
2023-04-06T23:29:39.486Z,8.88
2023-04-06T23:32:08.817Z,8.48
2023-04-06T23:34:38.033Z,8.46
2023-04-06T23:37:07.022Z,8.62
2023-04-06T23:39:38.132Z,8.43
2023-04-06T23:42:07.480Z,8.39
2023-04-06T23:44:36.492Z,8.51
2023-04-06T23:47:05.512Z,8.80
2023-04-06T23:49:35.261Z,8.22
2023-04-06T23:52:04.259Z,8.30
2023-04-06T23:54:33.398Z,7.63
2023-04-06T23:57:03.725Z,8.38
2023-04-06T23:59:32.890Z,8.29
